createdAt,value
2018-10-02T00:00:08.716Z,0.00
2018-10-02T00:01:08.747Z,0.00
2018-10-02T00:02:08.678Z,0.00
2018-10-02T00:03:08.668Z,0.00
2018-10-02T00:04:08.704Z,0.00
2018-10-02T00:05:08.644Z,0.00
2018-10-02T00:06:08.638Z,0.00
2018-10-02T00:07:08.620Z,0.00
2018-10-02T00:08:08.609Z,0.00
2018-10-02T00:09:08.607Z,0.00
2018-10-02T00:10:08.620Z,0.00
2018-10-02T00:11:08.576Z,0.00
2018-10-02T00:12:08.567Z,0.00
2018-10-02T00:13:08.553Z,0.00
2018-10-02T00:14:08.545Z,0.00
2018-10-02T00:15:08.563Z,0.00
2018-10-02T00:16:08.520Z,0.00
2018-10-02T00:17:08.509Z,0.00
2018-10-02T00:18:08.519Z,0.00
2018-10-02T00:19:08.488Z,0.00
2018-10-02T00:20:08.517Z,0.00
2018-10-02T00:21:08.469Z,0.00
2018-10-02T00:22:08.455Z,0.00
2018-10-02T00:23:08.454Z,0.00
2018-10-02T00:24:08.433Z,0.00
2018-10-02T00:25:08.460Z,0.00
2018-10-02T00:26:08.411Z,0.00
2018-10-02T00:27:08.404Z,0.00
2018-10-02T00:28:08.391Z,0.00
2018-10-02T00:29:08.381Z,0.00
2018-10-02T00:30:08.370Z,0.00
2018-10-02T00:31:08.402Z,0.00
2018-10-02T00:32:08.466Z,0.00
2018-10-02T00:33:08.342Z,0.00
2018-10-02T00:34:08.361Z,0.00
2018-10-02T00:35:08.336Z,0.00
2018-10-02T00:36:08.307Z,0.00
2018-10-02T00:37:08.298Z,0.00
2018-10-02T00:38:08.289Z,0.00
2018-10-02T00:39:08.318Z,0.00
2018-10-02T00:40:08.264Z,0.00
2018-10-02T00:41:08.269Z,0.00
2018-10-02T00:42:08.237Z,0.00
2018-10-02T00:43:08.232Z,0.00
2018-10-02T00:44:08.213Z,0.00
2018-10-02T00:45:08.203Z,0.00
2018-10-02T00:46:08.231Z,0.00
2018-10-02T00:47:08.190Z,0.00
2018-10-02T00:48:08.169Z,0.00
2018-10-02T00:49:08.163Z,0.00
2018-10-02T00:50:08.158Z,0.00
2018-10-02T00:51:08.134Z,0.00
2018-10-02T00:52:08.148Z,0.00
2018-10-02T00:53:08.121Z,0.00
2018-10-02T00:54:08.126Z,0.00
2018-10-02T00:55:08.092Z,0.00
2018-10-02T00:56:08.084Z,0.00
2018-10-02T00:57:08.078Z,0.00
2018-10-02T00:58:08.064Z,0.00
2018-10-02T00:59:08.082Z,0.00
2018-10-02T01:00:08.037Z,0.00
2018-10-02T01:01:08.025Z,0.00
2018-10-02T01:02:08.016Z,0.00
2018-10-02T01:03:08.006Z,0.00
2018-10-02T01:04:08.029Z,0.00
2018-10-02T01:05:07.985Z,0.00
2018-10-02T01:06:07.970Z,0.00
2018-10-02T01:07:07.964Z,0.00
2018-10-02T01:08:07.948Z,0.00
2018-10-02T01:09:07.941Z,0.00
2018-10-02T01:10:07.963Z,0.00
2018-10-02T01:11:07.929Z,0.00
2018-10-02T01:12:07.909Z,0.00
2018-10-02T01:13:07.892Z,0.00
2018-10-02T01:14:07.883Z,0.00
2018-10-02T01:15:07.894Z,0.00
2018-10-02T01:16:07.860Z,0.00
2018-10-02T01:17:07.853Z,0.00
2018-10-02T01:18:07.840Z,0.00
2018-10-02T01:19:07.866Z,0.00
2018-10-02T01:20:07.816Z,0.00
2018-10-02T01:21:07.809Z,0.00
2018-10-02T01:22:07.794Z,0.00
2018-10-02T01:23:07.786Z,0.00
2018-10-02T01:24:07.814Z,0.00
2018-10-02T01:25:07.770Z,0.00
2018-10-02T01:26:07.749Z,0.00
2018-10-02T01:27:07.771Z,0.00
2018-10-02T01:28:07.728Z,0.00
2018-10-02T01:29:07.718Z,0.00
2018-10-02T01:30:07.744Z,0.00
2018-10-02T01:31:07.695Z,0.00
2018-10-02T01:32:07.685Z,0.00
2018-10-02T01:33:07.680Z,0.00
2018-10-02T01:34:07.733Z,0.00
2018-10-02T01:35:07.652Z,0.00
2018-10-02T01:36:07.648Z,0.00
2018-10-02T01:37:07.670Z,0.00
2018-10-02T01:38:07.625Z,0.00
2018-10-02T01:39:07.654Z,0.00
2018-10-02T01:40:07.597Z,0.00
2018-10-02T01:41:07.587Z,0.00
2018-10-02T01:42:07.581Z,0.00
2018-10-02T01:43:07.564Z,0.00
2018-10-02T01:44:07.564Z,0.00
2018-10-02T01:45:07.570Z,0.00
2018-10-02T01:46:07.574Z,0.00
2018-10-02T01:47:07.533Z,0.00
2018-10-02T01:48:07.512Z,0.00
2018-10-02T01:49:07.500Z,0.00
2018-10-02T01:50:07.526Z,0.00
2018-10-02T01:51:07.480Z,0.00
2018-10-02T01:52:07.475Z,0.00
2018-10-02T01:53:07.467Z,0.00
2018-10-02T01:54:07.445Z,0.00
2018-10-02T01:55:07.461Z,0.00
2018-10-02T01:56:07.428Z,0.00
2018-10-02T01:57:07.408Z,0.00
2018-10-02T01:58:07.401Z,0.00
2018-10-02T01:59:07.396Z,0.00
2018-10-02T02:00:07.424Z,0.00
2018-10-02T02:01:07.364Z,0.00
2018-10-02T02:02:07.363Z,0.00
2018-10-02T02:03:07.341Z,0.00
2018-10-02T02:04:07.331Z,0.00
2018-10-02T02:05:07.328Z,0.00
2018-10-02T02:06:07.341Z,0.00
2018-10-02T02:07:07.300Z,0.00
2018-10-02T02:08:07.297Z,0.00
2018-10-02T02:09:07.280Z,0.00
2018-10-02T02:10:07.267Z,0.00
2018-10-02T02:11:07.283Z,0.00
2018-10-02T02:12:07.254Z,0.00
2018-10-02T02:13:07.231Z,0.00
2018-10-02T02:14:07.224Z,0.00
2018-10-02T02:15:07.212Z,0.00
2018-10-02T02:16:07.220Z,0.00
2018-10-02T02:17:07.191Z,0.00
2018-10-02T02:18:07.178Z,0.00
2018-10-02T02:19:07.167Z,0.00
2018-10-02T02:20:07.163Z,0.00
2018-10-02T02:21:07.185Z,0.00
2018-10-02T02:22:07.134Z,0.00
2018-10-02T02:23:07.123Z,0.00
2018-10-02T02:24:07.109Z,0.00
2018-10-02T02:25:07.103Z,0.00
2018-10-02T02:26:07.089Z,0.00
2018-10-02T02:27:07.108Z,0.00
2018-10-02T02:28:07.065Z,0.00
2018-10-02T02:29:07.058Z,0.00
2018-10-02T02:30:07.045Z,0.00
2018-10-02T02:31:07.033Z,0.00
2018-10-02T02:32:07.069Z,0.00
2018-10-02T02:33:07.022Z,0.00
2018-10-02T02:34:07.000Z,0.00
2018-10-02T02:35:06.991Z,0.00
2018-10-02T02:36:06.980Z,0.00
2018-10-02T02:37:06.995Z,0.00
2018-10-02T02:38:06.956Z,0.00
2018-10-02T02:39:06.951Z,0.00
2018-10-02T02:40:06.933Z,0.00
2018-10-02T02:41:06.927Z,0.00
2018-10-02T02:42:06.944Z,0.00
2018-10-02T02:43:06.906Z,0.00
2018-10-02T02:44:06.897Z,0.00
2018-10-02T02:45:06.885Z,0.00
2018-10-02T02:46:06.869Z,0.00
2018-10-02T02:47:06.900Z,0.00
2018-10-02T02:48:06.850Z,0.00
2018-10-02T02:49:06.838Z,0.00
2018-10-02T02:50:06.824Z,0.00
2018-10-02T02:51:06.812Z,0.00
2018-10-02T02:52:06.826Z,0.00
2018-10-02T02:53:06.795Z,0.00
2018-10-02T02:54:06.784Z,0.00
2018-10-02T02:55:06.805Z,0.00
2018-10-02T02:56:06.757Z,0.00
2018-10-02T02:57:06.751Z,0.00
2018-10-02T02:58:06.748Z,0.00
2018-10-02T02:59:06.723Z,0.00
2018-10-02T03:00:06.718Z,0.00
2018-10-02T03:01:06.735Z,0.00
2018-10-02T03:02:06.725Z,0.00
2018-10-02T03:03:06.709Z,0.00
2018-10-02T03:04:06.682Z,0.00
2018-10-02T03:05:06.661Z,0.00
2018-10-02T03:06:06.661Z,0.00
2018-10-02T03:07:06.644Z,0.00
2018-10-02T03:08:06.664Z,0.00
2018-10-02T03:09:06.615Z,0.00
2018-10-02T03:10:06.617Z,0.00
2018-10-02T03:11:06.619Z,0.00
2018-10-02T03:12:06.582Z,0.00
2018-10-02T03:13:06.587Z,0.00
2018-10-02T03:14:06.560Z,0.00
2018-10-02T03:15:06.550Z,0.00
2018-10-02T03:16:06.573Z,0.00
2018-10-02T03:17:06.556Z,0.00
2018-10-02T03:18:06.517Z,0.00
2018-10-02T03:19:06.506Z,0.00
2018-10-02T03:20:06.493Z,0.00
2018-10-02T03:21:06.481Z,0.00
2018-10-02T03:22:06.500Z,0.00
2018-10-02T03:23:06.463Z,0.00
2018-10-02T03:24:06.448Z,0.00
2018-10-02T03:25:06.440Z,0.00
2018-10-02T03:26:06.435Z,0.00
2018-10-02T03:27:06.460Z,0.00
2018-10-02T03:28:06.413Z,0.00
2018-10-02T03:29:06.420Z,0.00
2018-10-02T03:30:06.385Z,0.00
2018-10-02T03:31:06.382Z,0.00
2018-10-02T03:32:06.386Z,0.00
2018-10-02T03:33:06.350Z,0.00
2018-10-02T03:34:06.342Z,0.00
2018-10-02T03:35:06.332Z,0.00
2018-10-02T03:36:06.353Z,0.00
2018-10-02T03:37:06.309Z,0.00
2018-10-02T03:38:06.297Z,0.00
2018-10-02T03:39:06.295Z,0.00
2018-10-02T03:40:06.282Z,0.00
2018-10-02T03:41:06.269Z,0.00
2018-10-02T03:42:06.279Z,0.00
2018-10-02T03:43:06.238Z,0.00
2018-10-02T03:44:06.234Z,0.00
2018-10-02T03:45:06.228Z,0.00
2018-10-02T03:46:06.207Z,0.00
2018-10-02T03:47:06.230Z,0.00
2018-10-02T03:48:06.195Z,0.00
2018-10-02T03:49:06.180Z,0.00
2018-10-02T03:50:06.169Z,0.00
2018-10-02T03:51:06.159Z,0.00
2018-10-02T03:52:06.184Z,0.00
2018-10-02T03:53:06.153Z,0.00
2018-10-02T03:54:06.125Z,0.00
2018-10-02T03:55:06.115Z,0.00
2018-10-02T03:56:06.097Z,0.00
2018-10-02T03:57:06.092Z,0.00
2018-10-02T03:58:06.101Z,0.00
2018-10-02T03:59:06.064Z,0.00
2018-10-02T04:00:06.061Z,0.00
2018-10-02T04:01:06.058Z,0.00
2018-10-02T04:02:06.031Z,0.00
2018-10-02T04:03:06.065Z,0.00
2018-10-02T04:04:06.019Z,0.00
2018-10-02T04:05:05.999Z,0.00
2018-10-02T04:06:05.994Z,0.00
2018-10-02T04:07:06.004Z,0.00
2018-10-02T04:08:05.981Z,0.00
2018-10-02T04:09:05.958Z,0.00
2018-10-02T04:10:05.949Z,0.00
2018-10-02T04:11:05.931Z,0.00
2018-10-02T04:12:05.957Z,0.00
2018-10-02T04:13:05.962Z,0.00
2018-10-02T04:14:05.911Z,0.00
2018-10-02T04:15:05.898Z,0.00
2018-10-02T04:16:05.884Z,0.00
2018-10-02T04:17:05.893Z,0.00
2018-10-02T04:18:05.855Z,0.00
2018-10-02T04:19:05.850Z,0.00
2018-10-02T04:20:05.836Z,0.00
2018-10-02T04:21:05.825Z,0.00
2018-10-02T04:22:05.851Z,0.00
2018-10-02T04:23:05.807Z,0.00
2018-10-02T04:24:05.792Z,0.00
2018-10-02T04:25:05.792Z,0.00
2018-10-02T04:26:05.774Z,0.00
2018-10-02T04:27:05.804Z,0.00
2018-10-02T04:28:05.932Z,0.00
2018-10-02T04:29:05.738Z,0.00
2018-10-02T04:30:05.722Z,0.00
2018-10-02T04:31:05.716Z,0.00
2018-10-02T04:32:05.704Z,0.00
2018-10-02T04:33:05.722Z,0.00
2018-10-02T04:34:05.729Z,0.00
2018-10-02T04:35:05.677Z,0.00
2018-10-02T04:36:05.658Z,0.00
2018-10-02T04:37:05.665Z,0.00
2018-10-02T04:38:05.641Z,0.00
2018-10-02T04:39:05.629Z,0.00
2018-10-02T04:40:05.625Z,0.00
2018-10-02T04:41:05.605Z,0.00
2018-10-02T04:42:05.623Z,0.00
2018-10-02T04:43:05.582Z,0.00
2018-10-02T04:44:05.574Z,0.00
2018-10-02T04:45:05.594Z,0.00
2018-10-02T04:46:05.548Z,0.00
2018-10-02T04:47:05.607Z,0.00
2018-10-02T04:48:05.523Z,0.00
2018-10-02T04:49:05.515Z,0.00
2018-10-02T04:50:05.530Z,0.00
2018-10-02T04:51:05.496Z,0.00
2018-10-02T04:52:05.539Z,0.00
2018-10-02T04:53:05.483Z,0.00
2018-10-02T04:54:05.460Z,0.00
2018-10-02T04:55:05.515Z,0.00
2018-10-02T04:56:05.522Z,0.00
2018-10-02T04:57:05.427Z,4.00
2018-10-02T04:58:05.443Z,4.00
2018-10-02T04:59:05.414Z,0.00
2018-10-02T05:00:05.389Z,4.00
2018-10-02T05:01:05.382Z,4.00
2018-10-02T05:02:05.377Z,4.00
2018-10-02T05:03:05.393Z,4.00
2018-10-02T05:04:05.349Z,8.00
2018-10-02T05:05:05.339Z,8.00
2018-10-02T05:06:05.332Z,8.00
2018-10-02T05:07:05.314Z,8.00
2018-10-02T05:08:05.343Z,12.00
2018-10-02T05:09:05.298Z,12.00
2018-10-02T05:10:12.331Z,12.00
2018-10-02T05:11:12.320Z,16.00
2018-10-02T05:12:12.306Z,16.00
2018-10-02T05:13:05.244Z,16.00
2018-10-02T05:14:05.324Z,20.00
2018-10-02T05:15:05.230Z,20.00
2018-10-02T05:16:05.215Z,20.00
2018-10-02T05:17:05.209Z,20.00
2018-10-02T05:18:05.199Z,24.00
2018-10-02T05:19:05.202Z,24.00
2018-10-02T05:20:05.171Z,28.00
2018-10-02T05:21:05.165Z,28.00
2018-10-02T05:22:05.151Z,32.00
2018-10-02T05:23:05.164Z,36.00
2018-10-02T05:24:05.129Z,40.00
2018-10-02T05:25:05.114Z,40.00
2018-10-02T05:26:05.107Z,44.00
2018-10-02T05:27:05.123Z,52.00
2018-10-02T05:28:05.120Z,52.00
2018-10-02T05:29:05.109Z,52.00
2018-10-02T05:30:05.070Z,56.00
2018-10-02T05:31:05.050Z,56.00
2018-10-02T05:32:05.038Z,60.00
2018-10-02T05:33:05.048Z,60.00
2018-10-02T05:34:05.017Z,64.00
2018-10-02T05:35:05.098Z,68.00
2018-10-02T05:36:04.996Z,72.00
2018-10-02T05:37:04.983Z,76.00
2018-10-02T05:38:05.021Z,76.00
2018-10-02T05:39:04.974Z,80.00
2018-10-02T05:40:04.952Z,76.00
2018-10-02T05:41:04.939Z,88.00
2018-10-02T05:42:04.928Z,92.00
2018-10-02T05:43:04.917Z,100.00
2018-10-02T05:44:04.928Z,104.00
2018-10-02T05:45:04.905Z,108.00
2018-10-02T05:46:04.885Z,104.00
2018-10-02T05:47:04.885Z,108.00
2018-10-02T05:48:04.872Z,112.00
2018-10-02T05:49:04.872Z,120.00
2018-10-02T05:50:04.838Z,128.00
2018-10-02T05:51:04.840Z,144.00
2018-10-02T05:52:04.827Z,148.00
2018-10-02T05:53:04.807Z,148.00
2018-10-02T05:54:04.820Z,156.00
2018-10-02T05:55:04.784Z,176.00
2018-10-02T05:56:04.774Z,216.00
2018-10-02T05:57:04.771Z,228.00
2018-10-02T05:58:04.759Z,216.00
2018-10-02T05:59:04.779Z,256.00
2018-10-02T06:00:04.735Z,308.00
2018-10-02T06:01:04.727Z,332.00
2018-10-02T06:02:04.704Z,332.00
2018-10-02T06:03:04.732Z,312.00
2018-10-02T06:04:04.740Z,284.00
2018-10-02T06:05:04.671Z,272.00
2018-10-02T06:06:04.666Z,244.00
2018-10-02T06:07:04.660Z,220.00
2018-10-02T06:08:04.682Z,228.00
2018-10-02T06:09:04.632Z,244.00
2018-10-02T06:10:04.712Z,240.00
2018-10-02T06:11:04.607Z,252.00
2018-10-02T06:12:04.607Z,260.00
2018-10-02T06:13:04.622Z,260.00
2018-10-02T06:14:04.580Z,272.00
2018-10-02T06:15:04.566Z,288.00
2018-10-02T06:16:04.564Z,292.00
2018-10-02T06:17:04.631Z,284.00
2018-10-02T06:18:04.605Z,284.00
2018-10-02T06:19:04.518Z,280.00
2018-10-02T06:20:04.528Z,284.00
2018-10-02T06:21:04.508Z,284.00
2018-10-02T06:22:04.520Z,288.00
2018-10-02T06:23:04.593Z,292.00
2018-10-02T06:24:04.464Z,296.00
2018-10-02T06:25:04.466Z,296.00
2018-10-02T06:26:04.440Z,304.00
2018-10-02T06:27:04.436Z,316.00
2018-10-02T06:28:04.429Z,324.00
2018-10-02T06:29:04.446Z,324.00
2018-10-02T06:30:04.431Z,308.00
2018-10-02T06:31:04.401Z,288.00
2018-10-02T06:32:04.382Z,324.00
2018-10-02T06:33:04.377Z,360.00
2018-10-02T06:34:04.394Z,352.00
2018-10-02T06:35:04.348Z,320.00
2018-10-02T06:36:04.346Z,304.00
2018-10-02T06:37:04.318Z,296.00
2018-10-02T06:38:04.401Z,288.00
2018-10-02T06:39:04.413Z,284.00
2018-10-02T06:40:04.300Z,288.00
2018-10-02T06:41:04.333Z,300.00
2018-10-02T06:42:04.265Z,312.00
2018-10-02T06:43:04.254Z,352.00
2018-10-02T06:44:04.274Z,348.00
2018-10-02T06:45:04.332Z,360.00
2018-10-02T06:46:04.217Z,368.00
2018-10-02T06:47:04.212Z,372.00
2018-10-02T06:48:04.255Z,372.00
2018-10-02T06:49:11.301Z,376.00
2018-10-02T06:50:04.211Z,388.00
2018-10-02T06:51:04.238Z,392.00
2018-10-02T06:52:04.502Z,404.00
2018-10-02T06:53:04.181Z,424.00
2018-10-02T06:54:04.160Z,464.00
2018-10-02T06:55:04.149Z,556.00
2018-10-02T06:56:04.109Z,624.00
2018-10-02T06:57:04.183Z,608.00
2018-10-02T06:58:04.085Z,656.00
2018-10-02T06:59:04.084Z,728.00
2018-10-02T07:00:04.112Z,740.00
2018-10-02T07:01:04.059Z,680.00
2018-10-02T07:02:04.042Z,544.00
2018-10-02T07:03:04.136Z,516.00
2018-10-02T07:04:04.028Z,436.00
2018-10-02T07:05:04.012Z,504.00
2018-10-02T07:06:04.001Z,524.00
2018-10-02T07:07:03.984Z,448.00
2018-10-02T07:08:03.973Z,460.00
2018-10-02T07:09:04.016Z,512.00
2018-10-02T07:10:03.953Z,552.00
2018-10-02T07:11:03.940Z,612.00
2018-10-02T07:12:03.934Z,632.00
2018-10-02T07:13:03.917Z,488.00
2018-10-02T07:14:03.984Z,552.00
2018-10-02T07:15:11.037Z,612.00
2018-10-02T07:16:03.891Z,468.00
2018-10-02T07:17:03.875Z,568.00
2018-10-02T07:18:04.304Z,600.00
2018-10-02T07:19:04.364Z,560.00
2018-10-02T07:20:03.842Z,588.00
2018-10-02T07:21:03.951Z,632.00
2018-10-02T07:22:03.982Z,568.00
2018-10-02T07:23:10.885Z,536.00
2018-10-02T07:24:03.805Z,768.00
2018-10-02T07:25:03.807Z,708.00
2018-10-02T07:26:03.774Z,788.00
2018-10-02T07:27:03.940Z,780.00
2018-10-02T07:28:03.965Z,760.00
2018-10-02T07:29:03.742Z,724.00
2018-10-02T07:30:03.787Z,720.00
2018-10-02T07:31:03.740Z,672.00
2018-10-02T07:32:03.736Z,772.00
2018-10-02T07:33:03.857Z,788.00
2018-10-02T07:34:03.749Z,912.00
2018-10-02T07:35:03.678Z,868.00
2018-10-02T07:36:03.667Z,804.00
2018-10-02T07:37:03.671Z,780.00
2018-10-02T07:38:03.642Z,816.00
2018-10-02T07:39:03.685Z,760.00
2018-10-02T07:40:03.629Z,760.00
2018-10-02T07:41:03.609Z,828.00
2018-10-02T07:42:03.669Z,676.00
2018-10-02T07:43:03.593Z,548.00
2018-10-02T07:44:03.611Z,548.00
2018-10-02T07:45:03.576Z,620.00
2018-10-02T07:46:03.558Z,644.00
2018-10-02T07:47:03.555Z,452.00
2018-10-02T07:48:03.620Z,456.00
2018-10-02T07:49:03.555Z,712.00
2018-10-02T07:50:03.517Z,952.00
2018-10-02T07:51:03.584Z,936.00
2018-10-02T07:52:03.493Z,652.00
2018-10-02T07:53:03.480Z,572.00
2018-10-02T07:54:03.551Z,856.00
2018-10-02T07:55:03.462Z,588.00
2018-10-02T07:56:03.455Z,580.00
2018-10-02T07:57:03.489Z,732.00
2018-10-02T07:58:03.428Z,1052.00
2018-10-02T07:59:03.424Z,980.00
2018-10-02T08:00:03.508Z,988.00
2018-10-02T08:01:03.402Z,896.00
2018-10-02T08:02:03.388Z,760.00
2018-10-02T08:03:03.498Z,692.00
2018-10-02T08:04:03.365Z,568.00
2018-10-02T08:05:03.450Z,648.00
2018-10-02T08:06:03.444Z,524.00
2018-10-02T08:07:03.351Z,488.00
2018-10-02T08:08:03.322Z,476.00
2018-10-02T08:09:03.469Z,472.00
2018-10-02T08:10:03.299Z,488.00
2018-10-02T08:11:03.286Z,508.00
2018-10-02T08:12:03.375Z,604.00
2018-10-02T08:13:03.269Z,532.00
2018-10-02T08:14:03.752Z,524.00
2018-10-02T08:15:03.400Z,624.00
2018-10-02T08:16:03.244Z,596.00
2018-10-02T08:17:03.221Z,536.00
2018-10-02T08:18:03.291Z,552.00
2018-10-02T08:19:03.231Z,388.00
2018-10-02T08:20:03.218Z,484.00
2018-10-02T08:21:03.273Z,488.00
2018-10-02T08:22:03.168Z,480.00
2018-10-02T08:23:03.152Z,480.00
2018-10-02T08:24:10.801Z,356.00
2018-10-02T08:25:03.133Z,464.00
2018-10-02T08:26:03.140Z,476.00
2018-10-02T08:27:03.271Z,564.00
2018-10-02T08:28:03.099Z,564.00
2018-10-02T08:29:03.090Z,536.00
2018-10-02T08:30:03.192Z,532.00
2018-10-02T08:31:03.103Z,448.00
2018-10-02T08:32:03.058Z,464.00
2018-10-02T08:33:03.043Z,568.00
2018-10-02T08:34:03.030Z,548.00
2018-10-02T08:35:10.119Z,672.00
2018-10-02T08:36:03.403Z,600.00
2018-10-02T08:37:03.001Z,660.00
2018-10-02T08:38:03.021Z,596.00
2018-10-02T08:39:02.979Z,684.00
2018-10-02T08:40:03.009Z,664.00
2018-10-02T08:41:02.981Z,752.00
2018-10-02T08:42:02.936Z,800.00
2018-10-02T08:43:02.931Z,840.00
2018-10-02T08:44:02.947Z,840.00
2018-10-02T08:45:02.917Z,976.00
2018-10-02T08:46:02.901Z,868.00
2018-10-02T08:47:02.890Z,924.00
2018-10-02T08:48:02.930Z,924.00
2018-10-02T08:49:02.884Z,904.00
2018-10-02T08:50:02.858Z,744.00
2018-10-02T08:51:02.943Z,756.00
2018-10-02T08:52:02.885Z,656.00
2018-10-02T08:53:02.821Z,744.00
2018-10-02T08:54:02.979Z,800.00
2018-10-02T08:55:02.813Z,836.00
2018-10-02T08:56:02.809Z,900.00
2018-10-02T08:57:02.770Z,1084.00
2018-10-02T08:58:02.773Z,1196.00
2018-10-02T08:59:02.759Z,1272.00
2018-10-02T09:00:02.763Z,1344.00
2018-10-02T09:01:02.790Z,1428.00
2018-10-02T09:02:02.747Z,1232.00
2018-10-02T09:03:02.763Z,1232.00
2018-10-02T09:04:02.701Z,888.00
2018-10-02T09:05:02.690Z,724.00
2018-10-02T09:06:02.674Z,856.00
2018-10-02T09:07:02.841Z,840.00
2018-10-02T09:08:02.661Z,780.00
2018-10-02T09:09:02.646Z,908.00
2018-10-02T09:10:02.641Z,924.00
2018-10-02T09:11:02.618Z,740.00
2018-10-02T09:12:02.666Z,692.00
2018-10-02T09:13:02.677Z,800.00
2018-10-02T09:14:02.585Z,808.00
2018-10-02T09:15:02.592Z,764.00
2018-10-02T09:16:02.728Z,868.00
2018-10-02T09:17:02.595Z,872.00
2018-10-02T09:18:02.543Z,820.00
2018-10-02T09:19:02.601Z,800.00
2018-10-02T09:20:02.535Z,904.00
2018-10-02T09:21:02.505Z,884.00
2018-10-02T09:22:02.579Z,936.00
2018-10-02T09:23:02.509Z,916.00
2018-10-02T09:24:02.554Z,864.00
2018-10-02T09:25:02.585Z,968.00
2018-10-02T09:26:02.471Z,1188.00
2018-10-02T09:27:02.437Z,1156.00
2018-10-02T09:28:02.520Z,1268.00
2018-10-02T09:29:02.421Z,1260.00
2018-10-02T09:30:02.409Z,1216.00
2018-10-02T09:31:02.437Z,1084.00
2018-10-02T09:32:02.385Z,1120.00
2018-10-02T09:33:02.408Z,1024.00
2018-10-02T09:34:02.385Z,1172.00
2018-10-02T09:35:02.352Z,1152.00
2018-10-02T09:36:02.334Z,840.00
2018-10-02T09:37:02.410Z,924.00
2018-10-02T09:38:02.320Z,800.00
2018-10-02T09:39:02.329Z,832.00
2018-10-02T09:40:02.346Z,896.00
2018-10-02T09:41:02.290Z,972.00
2018-10-02T09:42:02.272Z,1052.00
2018-10-02T09:43:02.372Z,908.00
2018-10-02T09:44:02.351Z,800.00
2018-10-02T09:45:02.257Z,716.00
2018-10-02T09:46:02.345Z,784.00
2018-10-02T09:47:02.214Z,776.00
2018-10-02T09:48:02.205Z,748.00
2018-10-02T09:49:02.205Z,708.00
2018-10-02T09:50:02.223Z,800.00
2018-10-02T09:51:02.243Z,796.00
2018-10-02T09:52:02.162Z,864.00
2018-10-02T09:53:02.146Z,808.00
2018-10-02T09:54:02.141Z,668.00
2018-10-02T09:55:02.247Z,624.00
2018-10-02T09:56:02.147Z,740.00
2018-10-02T09:57:02.174Z,764.00
2018-10-02T09:58:02.084Z,784.00
2018-10-02T09:59:02.077Z,772.00
2018-10-02T10:00:02.071Z,748.00
2018-10-02T10:01:02.171Z,792.00
2018-10-02T10:02:02.083Z,884.00
2018-10-02T10:03:02.093Z,896.00
2018-10-02T10:04:02.017Z,868.00
2018-10-02T10:05:02.036Z,864.00
2018-10-02T10:06:01.998Z,936.00
2018-10-02T10:07:01.993Z,940.00
2018-10-02T10:08:01.979Z,1120.00
2018-10-02T10:09:01.967Z,1164.00
2018-10-02T10:10:01.988Z,1072.00
2018-10-02T10:11:01.948Z,1236.00
2018-10-02T10:12:01.933Z,1372.00
2018-10-02T10:13:01.919Z,1264.00
2018-10-02T10:14:01.909Z,1020.00
2018-10-02T10:15:01.905Z,1068.00
2018-10-02T10:16:01.912Z,1124.00
2018-10-02T10:17:01.982Z,1060.00
2018-10-02T10:18:01.860Z,1076.00
2018-10-02T10:19:01.850Z,1124.00
2018-10-02T10:20:01.945Z,1116.00
2018-10-02T10:21:01.851Z,1068.00
2018-10-02T10:22:01.815Z,1000.00
2018-10-02T10:23:01.828Z,848.00
2018-10-02T10:24:01.793Z,876.00
2018-10-02T10:25:01.793Z,908.00
2018-10-02T10:26:01.793Z,960.00
2018-10-02T10:27:01.786Z,1124.00
2018-10-02T10:28:01.749Z,1160.00
2018-10-02T10:29:01.853Z,1112.00
2018-10-02T10:30:01.727Z,980.00
2018-10-02T10:31:02.307Z,992.00
2018-10-02T10:32:01.715Z,940.00
2018-10-02T10:33:01.691Z,1216.00
2018-10-02T10:34:01.683Z,1168.00
2018-10-02T10:35:01.761Z,980.00
2018-10-02T10:36:01.729Z,928.00
2018-10-02T10:37:01.650Z,1152.00
2018-10-02T10:38:01.643Z,1120.00
2018-10-02T10:39:01.635Z,1056.00
2018-10-02T10:40:01.710Z,1180.00
2018-10-02T10:41:01.705Z,1240.00
2018-10-02T10:42:01.602Z,1120.00
2018-10-02T10:43:01.587Z,1136.00
2018-10-02T10:44:01.576Z,1204.00
2018-10-02T10:45:01.560Z,1160.00
2018-10-02T10:46:01.545Z,1016.00
2018-10-02T10:47:01.643Z,964.00
2018-10-02T10:48:01.523Z,992.00
2018-10-02T10:49:01.514Z,1068.00
2018-10-02T10:50:01.515Z,1132.00
2018-10-02T10:51:01.492Z,1148.00
2018-10-02T10:52:01.510Z,1200.00
2018-10-02T10:53:01.559Z,1212.00
2018-10-02T10:54:01.458Z,1200.00
2018-10-02T10:55:01.446Z,1148.00
2018-10-02T10:56:01.449Z,1128.00
2018-10-02T10:57:01.461Z,1160.00
2018-10-02T10:58:01.414Z,1204.00
2018-10-02T10:59:01.432Z,1200.00
2018-10-02T11:00:01.400Z,1260.00
2018-10-02T11:01:01.383Z,1292.00
2018-10-02T11:02:01.388Z,1224.00
2018-10-02T11:03:01.398Z,1356.00
2018-10-02T11:04:01.345Z,1344.00
2018-10-02T11:05:01.363Z,1176.00
2018-10-02T11:06:01.333Z,1080.00
2018-10-02T11:07:01.309Z,996.00
2018-10-02T11:08:01.338Z,984.00
2018-10-02T11:09:01.294Z,964.00
2018-10-02T11:10:01.317Z,948.00
2018-10-02T11:11:01.269Z,856.00
2018-10-02T11:12:01.273Z,824.00
2018-10-02T11:13:01.246Z,920.00
2018-10-02T11:14:01.293Z,972.00
2018-10-02T11:15:01.239Z,992.00
2018-10-02T11:16:01.388Z,1088.00
2018-10-02T11:17:01.199Z,1188.00
2018-10-02T11:18:01.191Z,1152.00
2018-10-02T11:19:01.178Z,1004.00
2018-10-02T11:20:01.166Z,884.00
2018-10-02T11:21:01.183Z,928.00
2018-10-02T11:22:01.155Z,984.00
2018-10-02T11:23:01.139Z,964.00
2018-10-02T11:24:01.184Z,1032.00
2018-10-02T11:25:01.126Z,996.00
2018-10-02T11:26:01.162Z,1108.00
2018-10-02T11:27:01.109Z,1120.00
2018-10-02T11:28:01.080Z,1072.00
2018-10-02T11:29:01.069Z,1004.00
2018-10-02T11:30:01.062Z,1092.00
2018-10-02T11:31:01.083Z,916.00
2018-10-02T11:32:01.063Z,904.00
2018-10-02T11:33:01.019Z,944.00
2018-10-02T11:34:01.008Z,800.00
2018-10-02T11:35:01.002Z,800.00
2018-10-02T11:36:08.077Z,884.00
2018-10-02T11:37:01.018Z,836.00
2018-10-02T11:38:00.972Z,728.00
2018-10-02T11:39:00.959Z,816.00
2018-10-02T11:40:00.947Z,876.00
2018-10-02T11:41:00.938Z,1036.00
2018-10-02T11:42:00.955Z,1100.00
2018-10-02T11:43:00.906Z,996.00
2018-10-02T11:44:00.920Z,964.00
2018-10-02T11:45:01.022Z,1048.00
2018-10-02T11:46:00.921Z,1008.00
2018-10-02T11:47:00.868Z,1056.00
2018-10-02T11:48:00.852Z,1028.00
2018-10-02T11:49:00.841Z,1024.00
2018-10-02T11:50:00.946Z,1056.00
2018-10-02T11:51:00.916Z,1060.00
2018-10-02T11:52:00.811Z,1068.00
2018-10-02T11:53:00.807Z,1052.00
2018-10-02T11:54:00.789Z,1116.00
2018-10-02T11:55:00.774Z,1172.00
2018-10-02T11:56:00.775Z,1160.00
2018-10-02T11:57:00.805Z,976.00
2018-10-02T11:58:00.746Z,1000.00
2018-10-02T11:59:00.756Z,1008.00
2018-10-02T12:00:00.806Z,920.00
2018-10-02T12:01:00.759Z,868.00
2018-10-02T12:02:00.737Z,844.00
2018-10-02T12:03:00.720Z,844.00
2018-10-02T12:04:00.693Z,852.00
2018-10-02T12:05:00.682Z,904.00
2018-10-02T12:06:00.655Z,984.00
2018-10-02T12:07:00.724Z,1148.00
2018-10-02T12:08:00.636Z,1336.00
2018-10-02T12:09:00.645Z,1280.00
2018-10-02T12:10:00.617Z,1248.00
2018-10-02T12:11:00.600Z,1244.00
2018-10-02T12:12:00.614Z,1344.00
2018-10-02T12:13:00.601Z,1100.00
2018-10-02T12:14:00.724Z,1136.00
2018-10-02T12:15:00.750Z,1092.00
2018-10-02T12:16:00.546Z,1044.00
2018-10-02T12:17:00.566Z,1096.00
2018-10-02T12:18:00.543Z,1100.00
2018-10-02T12:19:00.509Z,1260.00
2018-10-02T12:20:00.751Z,1388.00
2018-10-02T12:21:00.479Z,1492.00
2018-10-02T12:22:00.469Z,1496.00
2018-10-02T12:23:00.536Z,1604.00
2018-10-02T12:24:00.449Z,1600.00
2018-10-02T12:25:00.471Z,1480.00
2018-10-02T12:26:00.428Z,1504.00
2018-10-02T12:27:00.462Z,1520.00
2018-10-02T12:28:00.417Z,1304.00
2018-10-02T12:29:00.391Z,1388.00
2018-10-02T12:30:00.427Z,1244.00
2018-10-02T12:31:00.367Z,1204.00
2018-10-02T12:32:00.359Z,1048.00
2018-10-02T12:33:00.363Z,992.00
2018-10-02T12:34:00.341Z,920.00
2018-10-02T12:35:00.323Z,1096.00
2018-10-02T12:36:00.351Z,1196.00
2018-10-02T12:37:00.342Z,1232.00
2018-10-02T12:38:00.289Z,1208.00
2018-10-02T12:39:00.278Z,1236.00
2018-10-02T12:40:00.273Z,1180.00
2018-10-02T12:41:00.254Z,1136.00
2018-10-02T12:42:00.245Z,1088.00
2018-10-02T12:43:00.265Z,1040.00
2018-10-02T12:44:00.223Z,1000.00